Terminal Aerodrome Forecast
Issued by NWS San Angelo, TX

Home | Current Version | Previous Version | Text Only | Print | Product List | Glossary On
Versions: 1 2 3 4 5 6 7 8 9 10 11 12 13 14 15 16 17 18 19 20 21 22 23 24 25 26
000
FTUS44 KSJT 261453 AAC
TAFABI
TAF AMD
KABI 261453Z 2615/2712 16006KT P6SM BKN007
     FM261600 11008KT P6SM BKN050
     FM262000 10008KT P6SM VCTS BKN035CB OVC050
     FM270300 13006KT P6SM BKN050=

USA.gov is the U.S. government's official web portal to all federal, state and local government web resources and services.